Terminal Aerodrome Forecast
Issued by NWS

Home | Current Version | Previous Version | Graphics & Text | Print | Product List | Glossary On
Versions: 1 2 3 4 5 6 7 8 9 10 11 12 13 14 15
397
FTUS42 KMHX 062354
TAFOAJ
TAF
KOAJ 062354Z 0700/0724 26004KT P6SM OVC007
     FM070600 28005KT 5SM BR SCT003 BKN005
     FM071300 34005KT P6SM SCT020
      AMD LTD TO CLD VIS AND WIND=

USA.gov is the U.S. government's official web portal to all federal, state and local government web resources and services.